METAR Data
IDs: Format: Raw Decoded Include TAF

Data at: 1847 UTC 16 Oct 2021

KORG 161835Z AUTO 01010G16KT 10SM CLR 23/03 A3024 RMK AO2 T02270034
KORG 161815Z AUTO 01008G14KT 330V040 10SM CLR 23/04 A3024 RMK AO2 T02280041
KORG 161755Z AUTO 01012G19KT 340V040 10SM CLR 22/04 A3026 RMK AO2 T02200038 10220 20160
KORG 161735Z AUTO 36011G17KT 10SM CLR 22/04 A3026 RMK AO2 T02170042
KORG 161715Z AUTO 03012G16KT 10SM CLR 22/05 A3027 RMK AO2 T02160051
KORG 161655Z AUTO 03011G18KT 10SM CLR 21/05 A3027 RMK AO2 T02100050
KORG 161635Z AUTO 03012G15KT 10SM CLR 21/05 A3027 RMK AO2 T02060049
KORG 161615Z AUTO 02011G19KT 10SM CLR 20/05 A3028 RMK AO2 T02020052
KORG 161555Z AUTO 02013G20KT 10SM CLR 20/06 A3028 RMK AO2 T01960055
KORG 161535Z AUTO 03010G21KT 10SM CLR 19/06 A3028 RMK AO2 T01920055
KORG 161515Z AUTO 02011G17KT 10SM CLR 19/06 A3028 RMK AO2 T01900058
KORG 161455Z AUTO 04014G20KT 10SM CLR 19/06 A3029 RMK AO2 T01860060
KORG 161435Z AUTO 04013G16KT 10SM CLR 18/07 A3028 RMK AO2 T01800065
KORG 161415Z AUTO 04010G15KT 10SM CLR 18/07 A3027 RMK AO2 T01760071
KORG 161355Z AUTO 03008G15KT 10SM CLR 17/07 A3026 RMK AO2 T01710072
KORG 161335Z AUTO 02009G15KT 10SM CLR 17/07 A3026 RMK AO2 T01650074
KORG 161315Z AUTO 03009G17KT 10SM CLR 16/07 A3025 RMK AO2 T01620073
KORG 161255Z AUTO 02011G19KT 10SM CLR 16/08 A3024 RMK AO2 T01610075
KORG 161235Z AUTO 01008G17KT 10SM CLR 16/08 A3023 RMK AO2 T01600075
KORG 161215Z AUTO 02009G14KT 10SM CLR 16/08 A3023 RMK AO2 T01600079
KORG 161155Z AUTO 02008G15KT 360V060 10SM CLR 16/09 A3022 RMK AO2 70040 T01620085 10225 20162
KORG 161135Z AUTO 02008G17KT 10SM CLR 17/09 A3021 RMK AO2 T01650090
KORG 161115Z AUTO 02008G15KT 10SM CLR 17/09 A3020 RMK AO2 T01670093
KORG 161055Z AUTO 02010G16KT 10SM CLR 17/10 A3019 RMK AO2 T01710095
KORG 161035Z AUTO 02010G17KT 10SM CLR 17/10 A3018 RMK AO2 T01730096
KORG 161015Z AUTO 02010G18KT 10SM CLR 18/10 A3018 RMK AO2 T01760097
KORG 160955Z AUTO 01013G20KT 10SM CLR 18/10 A3016 RMK AO2 T01800098
KORG 160935Z AUTO 01009G19KT 10SM CLR 18/10 A3016 RMK AO2 T01840099
KORG 160915Z AUTO 02012G21KT 10SM CLR 19/10 A3015 RMK AO2 T01870101
KORG 160855Z AUTO 01012G18KT 10SM CLR 19/11 A3014 RMK AO2 T01900110
KORG 160835Z AUTO 36007G15KT 330V050 10SM CLR 19/12 A3014 RMK AO2 T01930120
KORG 160815Z AUTO 01012G17KT 10SM CLR 20/13 A3013 RMK AO2 T01960126
KORG 160755Z AUTO 01012G18KT 10SM CLR 20/13 A3013 RMK AO2 T02000131
KORG 160735Z AUTO 01010G16KT 10SM CLR 20/13 A3013 RMK AO2 T02040134
KORG 160715Z AUTO 36010G16KT 330V030 10SM CLR 21/14 A3012 RMK AO2 T02060136
KORG 160655Z AUTO 36008KT 10SM CLR 21/15 A3011 RMK AO2 T02090150
KORG 160635Z AUTO 36009G21KT 10SM CLR 22/15 A3011 RMK AO2 T02150151
KORG 160615Z AUTO 36009G21KT 10SM CLR 22/15 A3010 RMK AO2 T02210154
KORG 160555Z AUTO 36007G18KT 10SM CLR 23/18 A3009 RMK AO2 60040 T02260179 10282 20226 403210226
KORG 160535Z AUTO 36007KT 10SM CLR 23/20 A3009 RMK AO2 T02310195
KORG 160515Z AUTO 35008KT 10SM CLR 24/20 A3008 RMK AO2 T02350196
KORG 160455Z AUTO 35009G17KT 10SM SCT030 24/20 A3008 RMK AO2 T02400202
KORG 160435Z AUTO 35008G17KT 10SM SCT028 24/22 A3007 RMK AO2 T02440215
KORG 160415Z AUTO 35005KT 10SM SCT050 24/22 A3005 RMK AO2 T02420220
KORG 160355Z AUTO 32004KT 10SM SCT044 BKN060 24/22 A3004 RMK AO2 T02400220
KORG 160335Z AUTO 31005KT 10SM SCT040 BKN060 23/22 A3003 RMK AO2 T02340222
KORG 160315Z AUTO 00000KT 10SM CLR 23/22 A3002 RMK AO2 T02300217
KORG 160255Z AUTO 00000KT 10SM SCT100 23/22 A3000 RMK AO2 60040 T02300217
KORG 160235Z AUTO 00000KT 10SM SCT100 23/22 A3000 RMK AO2 T02300218
KORG 160215Z AUTO 33003KT 10SM SCT095 23/22 A3000 RMK AO2 T02280216
KORG 160155Z AUTO 36003KT 10SM CLR 23/22 A2999 RMK AO2 T02290216
KORG 160135Z AUTO 00000KT 10SM CLR 23/22 A2998 RMK AO2 T02300216
KORG 160115Z AUTO 00000KT 10SM CLR 23/22 A2996 RMK AO2 LTG DSNT SE T02310215
KORG 160055Z AUTO 25003KT 10SM VCTS SCT090 24/21 A2996 RMK AO2 LTG DSNT NE THRU S P0040 T02350212
KORG 160035Z AUTO 17007KT 10SM -TSRA SCT011 BKN070 OVC090 23/21 A2996 RMK AO2 LTG DSNT ALQS P0040 T02340205
KORG 160015Z AUTO 34011G19KT 1 3/4SM +TSRA SCT011 BKN020 OVC110 24/21 A2998 RMK AO2 LTG DSNT ALQS P0027 T02440206
KORG 152355Z AUTO 21007KT 10SM TS SCT110 28/24 A2995 RMK AO2 LTG DSNT SW THRU N T02810238 10321 20281
KORG 152335Z AUTO 20006KT 10SM CLR 28/24 A2994 RMK AO2 LTG DSNT SW THRU NW T02820237
KORG 152315Z AUTO 19005KT 10SM CLR 29/24 A2994 RMK AO2 LTG DSNT W T02850236
KORG 152255Z AUTO 20005KT 10SM CLR 29/24 A2992 RMK AO2 LTG DSNT SW AND NW T02880236
KORG 152235Z AUTO 20005KT 10SM CLR 29/23 A2992 RMK AO2 T02920232
KORG 152215Z AUTO 19007KT 10SM CLR 30/23 A2991 RMK AO2 T02980229
KORG 152155Z AUTO 20006KT 10SM CLR 31/22 A2991 RMK AO2 T03080224
KORG 152135Z AUTO 19007KT 10SM CLR 31/22 A2992 RMK AO2 T03140221
KORG 152115Z AUTO 19007KT 10SM SCT044 SCT050 31/22 A2992 RMK AO2 T03120220
KORG 152055Z AUTO 20007KT 10SM SCT044 SCT060 32/22 A2992 RMK AO2 T03170220
KORG 152035Z AUTO 18007KT 10SM SCT050 SCT060 32/22 A2992 RMK AO2 T03190218
KORG 152015Z AUTO 21007KT 10SM CLR 32/21 A2993 RMK AO2 T03180214
KORG 151955Z AUTO 16006KT 10SM SCT045 32/22 A2992 RMK AO2 T03200217
KORG 151935Z AUTO 19006KT 10SM SCT045 SCT055 32/21 A2992 RMK AO2 T03210214
KORG 151915Z AUTO 18005KT 10SM SCT042 SCT055 31/21 A2993 RMK AO2 T03140210
KORG 151855Z AUTO 00000KT 10SM CLR 32/20 A2994 RMK AO2 T03190195
KORG 151835Z AUTO 24005KT 10SM CLR 32/19 A2995 RMK AO2 T03210193
KORG 151815Z AUTO 22007KT 10SM SCT040 32/20 A2995 RMK AO2 T03170201
KORG 151755Z AUTO 25004KT 10SM SCT032 SCT041 SCT050 30/20 A2996 RMK AO2 T03020203 10315 20226
KORG 151735Z AUTO 24004KT 10SM SCT030 BKN035 BKN041 31/22 A2997 RMK AO2 T03080222
KORG 151715Z AUTO 20005KT 10SM SCT030 SCT035 SCT055 31/22 A2997 RMK AO2 T03140224
KORG 151655Z AUTO 20005KT 10SM CLR 30/23 A2998 RMK AO2 T03040229
KORG 151635Z AUTO 20005KT 10SM SCT023 SCT028 30/23 A2998 RMK AO2 T02990233
KORG 151615Z AUTO 25003KT 10SM SCT022 SCT027 SCT034 28/24 A2998 RMK AO2 T02800238
KORG 151555Z AUTO 25003KT 10SM BKN019 BKN033 BKN045 28/24 A2998 RMK AO2 T02820241
KORG 151535Z AUTO 25003KT 10SM BKN017 BKN029 OVC044 30/24 A2998 RMK AO2 T02970240
KORG 151515Z AUTO 18007KT 10SM SCT017 BKN022 BKN037 30/24 A2998 RMK AO2 T02960242
KORG 151455Z AUTO 18005KT 10SM SCT013 BKN024 BKN037 29/25 A2997 RMK AO2 T02900250
KORG 151435Z AUTO 19007KT 10SM SCT011 SCT018 BKN033 27/25 A2997 RMK AO2 T02720254
KORG 151415Z AUTO 16004KT 10SM SCT033 SCT041 27/26 A2996 RMK AO2 T02690260
KORG 151355Z AUTO 00000KT 10SM CLR 26/26 A2996 RMK AO2 T02620255
KORG 151335Z AUTO 00000KT 7SM CLR 25/24 A2995 RMK AO2 T02520244
KORG 151315Z AUTO 00000KT 5SM BR SCT013 25/24 A2995 RMK AO2 T02460239
KORG 151255Z AUTO 00000KT 1/4SM FG BKN003 BKN006 OVC013 23/22 A2994 RMK AO2 T02300222
KORG 151235Z AUTO 00000KT M1/4SM FG OVC005 23/22 A2994 RMK AO2 T02260219
KORG 151215Z AUTO 00000KT M1/4SM FG OVC003 23/22 A2993 RMK AO2 T02280221
KORG 151155Z AUTO 00000KT 1/4SM FG OVC003 23/22 A2993 RMK AO2 T02260219 10262 20226
KORG 151135Z AUTO 00000KT 1/2SM FG BKN005 23/23 A2992 RMK AO2 T02320225
KORG 151115Z AUTO 00000KT 1/2SM FG BKN005 BKN009 24/23 A2992 RMK AO2 T02360229
KORG 151055Z AUTO 00000KT 4SM BR CLR 23/23 A2991 RMK AO2 T02320225
KORG 151035Z AUTO 00000KT 1SM BR BKN004 BKN008 23/23 A2991 RMK AO2 VIS 1/2V3 T02330225
KORG 151015Z AUTO 00000KT 1/2SM FG OVC003 24/23 A2991 RMK AO2 T02350226
KORG 150955Z AUTO 00000KT 1/4SM FG OVC003 23/22 A2990 RMK AO2 T02300221
KORG 150935Z AUTO 00000KT 1SM BR OVC003 24/23 A2990 RMK AO2 VIS 1/2V5 T02350225
KORG 150915Z AUTO 00000KT 2SM BR CLR 24/22 A2990 RMK AO2 VIS 1V5 T02350224
KORG 150855Z AUTO 00000KT 1SM BR VV007 24/23 A2990 RMK AO2 T02390228
KORG 150835Z AUTO 00000KT 5SM BR CLR 25/24 A2990 RMK AO2 T02470235
KORG 150815Z AUTO 00000KT 7SM CLR 25/24 A2991 RMK AO2 T02510237
KORG 150755Z AUTO 00000KT 10SM CLR 26/24 A2991 RMK AO2 T02560242
KORG 150735Z AUTO 00000KT 10SM CLR 26/24 A2992 RMK AO2 T02570242
KORG 150715Z AUTO 17003KT 10SM CLR 26/24 A2992 RMK AO2 T02590243
KORG 150655Z AUTO 15003KT 10SM SCT031 26/24 A2992 RMK AO2 T02600243